createdAt,value
2018-04-14T00:00:15.040Z,994.20
2018-04-14T00:01:15.002Z,994.18
2018-04-14T00:02:14.996Z,994.15
2018-04-14T00:03:14.976Z,994.17
2018-04-14T00:04:14.955Z,994.17
2018-04-14T00:05:14.939Z,994.16
2018-04-14T00:06:14.913Z,994.18
2018-04-14T00:07:14.897Z,994.16
2018-04-14T00:08:14.892Z,994.18
2018-04-14T00:09:14.874Z,994.16
2018-04-14T00:10:14.856Z,994.18
2018-04-14T00:11:14.892Z,994.21
2018-04-14T00:12:14.817Z,994.25
2018-04-14T00:13:14.808Z,994.24
2018-04-14T00:14:14.775Z,994.28
2018-04-14T00:15:14.765Z,994.27
2018-04-14T00:16:14.746Z,994.29
2018-04-14T00:17:14.746Z,994.32
2018-04-14T00:18:14.707Z,994.33
2018-04-14T00:19:14.688Z,994.37
2018-04-14T00:20:14.678Z,994.35
2018-04-14T00:21:14.685Z,994.39
2018-04-14T00:22:14.637Z,994.35
2018-04-14T00:23:14.637Z,994.33
2018-04-14T00:24:14.620Z,994.35
2018-04-14T00:25:14.589Z,994.37
2018-04-14T00:26:14.595Z,994.37
2018-04-14T00:27:14.555Z,994.38
2018-04-14T00:28:14.536Z,994.38
2018-04-14T00:29:14.507Z,994.37
2018-04-14T00:30:14.557Z,994.36
2018-04-14T00:31:14.493Z,994.40
2018-04-14T00:32:14.472Z,994.42
2018-04-14T00:33:14.454Z,994.37
2018-04-14T00:34:14.459Z,994.38
2018-04-14T00:35:14.414Z,994.39
2018-04-14T00:36:14.395Z,994.40
2018-04-14T00:37:14.378Z,994.41
2018-04-14T00:38:14.359Z,994.40
2018-04-14T00:39:14.346Z,994.40
2018-04-14T00:40:14.328Z,994.44
2018-04-14T00:41:14.314Z,994.44
2018-04-14T00:42:14.291Z,994.46
2018-04-14T00:43:14.275Z,994.51
2018-04-14T00:44:14.265Z,994.48
2018-04-14T00:45:14.234Z,994.48
2018-04-14T00:46:14.228Z,994.46
2018-04-14T00:47:14.201Z,994.42
2018-04-14T00:48:14.185Z,994.48
2018-04-14T00:49:14.172Z,994.47
2018-04-14T00:50:14.146Z,994.42
2018-04-14T00:51:14.126Z,994.41
2018-04-14T00:52:14.108Z,994.42
2018-04-14T00:53:14.089Z,994.44
2018-04-14T00:54:14.076Z,994.44
2018-04-14T00:55:14.063Z,994.42
2018-04-14T00:56:14.041Z,994.39
2018-04-14T00:57:14.021Z,994.40
2018-04-14T00:58:14.012Z,994.38
2018-04-14T00:59:14.009Z,994.39
2018-04-14T01:00:13.970Z,994.40
2018-04-14T01:01:13.950Z,994.39
2018-04-14T01:02:13.954Z,994.42
2018-04-14T01:03:13.929Z,994.44
2018-04-14T01:04:13.903Z,994.43
2018-04-14T01:05:13.885Z,994.43
2018-04-14T01:06:13.865Z,994.46
2018-04-14T01:07:13.846Z,994.47
2018-04-14T01:08:13.836Z,994.47
2018-04-14T01:09:13.817Z,994.44
2018-04-14T01:10:13.802Z,994.43
2018-04-14T01:11:13.775Z,994.42
2018-04-14T01:12:13.756Z,994.44
2018-04-14T01:13:13.733Z,994.38
2018-04-14T01:14:13.721Z,994.41
2018-04-14T01:15:13.705Z,994.41
2018-04-14T01:16:13.682Z,994.43
2018-04-14T01:17:13.667Z,994.44
2018-04-14T01:18:13.646Z,994.39
2018-04-14T01:19:13.657Z,994.46
2018-04-14T01:20:13.625Z,994.39
2018-04-14T01:21:13.591Z,994.45
2018-04-14T01:22:13.588Z,994.42
2018-04-14T01:23:13.560Z,994.46
2018-04-14T01:24:13.544Z,994.44
2018-04-14T01:25:13.528Z,994.49
2018-04-14T01:26:13.511Z,994.45
2018-04-14T01:27:13.494Z,994.52
2018-04-14T01:28:13.478Z,994.50
2018-04-14T01:29:13.492Z,994.53
2018-04-14T01:30:13.440Z,994.52
2018-04-14T01:31:13.416Z,994.56
2018-04-14T01:32:13.400Z,994.55
2018-04-14T01:33:13.384Z,994.59
2018-04-14T01:34:13.366Z,994.58
2018-04-14T01:35:13.362Z,994.62
2018-04-14T01:36:13.330Z,994.59
2018-04-14T01:37:13.308Z,994.60
2018-04-14T01:38:13.289Z,994.61
2018-04-14T01:39:13.280Z,994.60
2018-04-14T01:40:13.257Z,994.62
2018-04-14T01:41:13.235Z,994.61
2018-04-14T01:42:13.229Z,994.62
2018-04-14T01:43:13.209Z,994.61
2018-04-14T01:44:13.180Z,994.63
2018-04-14T01:45:13.171Z,994.60
2018-04-14T01:46:13.149Z,994.66
2018-04-14T01:47:13.129Z,994.63
2018-04-14T01:48:13.103Z,994.65
2018-04-14T01:49:13.091Z,994.62
2018-04-14T01:50:13.071Z,994.66
2018-04-14T01:51:13.056Z,994.61
2018-04-14T01:52:13.037Z,994.63
2018-04-14T01:53:13.017Z,994.64
2018-04-14T01:54:12.998Z,994.66
2018-04-14T01:55:12.985Z,994.61
2018-04-14T01:56:12.964Z,994.66
2018-04-14T01:57:12.947Z,994.68
2018-04-14T01:58:12.975Z,994.68
2018-04-14T01:59:12.915Z,994.69
2018-04-14T02:00:12.886Z,994.66
2018-04-14T02:01:12.886Z,994.69
2018-04-14T02:02:12.845Z,994.71
2018-04-14T02:03:12.832Z,994.71
2018-04-14T02:04:12.809Z,994.70
2018-04-14T02:05:12.813Z,994.71
2018-04-14T02:06:12.778Z,994.72
2018-04-14T02:07:12.760Z,994.67
2018-04-14T02:08:12.747Z,994.65
2018-04-14T02:09:12.730Z,994.69
2018-04-14T02:10:12.705Z,994.68
2018-04-14T02:11:12.682Z,994.67
2018-04-14T02:12:12.680Z,994.73
2018-04-14T02:13:12.647Z,994.72
2018-04-14T02:14:12.628Z,994.72
2018-04-14T02:15:12.612Z,994.73
2018-04-14T02:16:12.612Z,994.71
2018-04-14T02:17:12.580Z,994.71
2018-04-14T02:18:12.558Z,994.68
2018-04-14T02:19:12.559Z,994.69
2018-04-14T02:20:12.532Z,994.72
2018-04-14T02:21:12.501Z,994.74
2018-04-14T02:22:12.491Z,994.76
2018-04-14T02:23:12.453Z,994.78
2018-04-14T02:24:12.468Z,994.76
2018-04-14T02:25:12.433Z,994.79
2018-04-14T02:26:12.418Z,994.79
2018-04-14T02:27:12.389Z,994.77
2018-04-14T02:28:12.379Z,994.75
2018-04-14T02:29:12.358Z,994.79
2018-04-14T02:30:12.348Z,994.77
2018-04-14T02:31:12.330Z,994.84
2018-04-14T02:32:12.310Z,994.82
2018-04-14T02:33:12.289Z,994.82
2018-04-14T02:34:12.270Z,994.80
2018-04-14T02:35:12.254Z,994.81
2018-04-14T02:36:12.239Z,994.84
2018-04-14T02:37:12.212Z,994.78
2018-04-14T02:38:12.190Z,994.79
2018-04-14T02:39:12.200Z,994.77
2018-04-14T02:40:12.168Z,994.79
2018-04-14T02:41:12.140Z,994.84
2018-04-14T02:42:12.120Z,994.82
2018-04-14T02:43:12.111Z,994.82
2018-04-14T02:44:12.101Z,994.83
2018-04-14T02:45:12.060Z,994.81
2018-04-14T02:46:12.050Z,994.84
2018-04-14T02:47:12.030Z,994.88
2018-04-14T02:48:12.012Z,994.89
2018-04-14T02:49:12.002Z,994.83
2018-04-14T02:50:11.976Z,994.83
2018-04-14T02:51:11.963Z,994.89
2018-04-14T02:52:12.002Z,994.85
2018-04-14T02:53:11.931Z,994.84
2018-04-14T02:54:11.900Z,994.81
2018-04-14T02:55:11.880Z,994.82
2018-04-14T02:56:11.866Z,994.80
2018-04-14T02:57:11.848Z,994.86
2018-04-14T02:58:11.826Z,994.84
2018-04-14T02:59:11.818Z,994.83
2018-04-14T03:00:11.790Z,994.86
2018-04-14T03:01:11.764Z,994.85
2018-04-14T03:02:11.748Z,994.85
2018-04-14T03:03:11.741Z,994.86
2018-04-14T03:04:11.724Z,994.86
2018-04-14T03:05:11.710Z,994.84
2018-04-14T03:06:11.677Z,994.81
2018-04-14T03:07:11.664Z,994.89
2018-04-14T03:08:11.658Z,994.90
2018-04-14T03:09:11.626Z,994.87
2018-04-14T03:10:11.607Z,994.85
2018-04-14T03:11:11.585Z,994.93
2018-04-14T03:12:11.578Z,994.90
2018-04-14T03:13:11.559Z,994.91
2018-04-14T03:14:11.537Z,994.92
2018-04-14T03:15:11.517Z,994.95
2018-04-14T03:16:11.505Z,994.94
2018-04-14T03:17:11.501Z,994.95
2018-04-14T03:18:11.461Z,994.93
2018-04-14T03:19:11.452Z,994.97
2018-04-14T03:20:11.428Z,994.97
2018-04-14T03:21:11.401Z,994.98
2018-04-14T03:22:11.389Z,995.00
2018-04-14T03:23:11.370Z,995.00
2018-04-14T03:24:11.353Z,995.05
2018-04-14T03:25:11.336Z,995.04
2018-04-14T03:26:11.318Z,995.03
2018-04-14T03:27:11.306Z,995.07
2018-04-14T03:28:11.270Z,995.12
2018-04-14T03:29:11.255Z,995.05
2018-04-14T03:30:11.258Z,995.10
2018-04-14T03:31:11.221Z,995.10
2018-04-14T03:32:11.223Z,995.07
2018-04-14T03:33:11.181Z,995.10
2018-04-14T03:34:11.160Z,995.06
2018-04-14T03:35:11.148Z,995.09
2018-04-14T03:36:11.131Z,995.01
2018-04-14T03:37:11.112Z,995.06
2018-04-14T03:38:11.090Z,995.04
2018-04-14T03:39:11.074Z,995.04
2018-04-14T03:40:11.045Z,995.03
2018-04-14T03:41:11.032Z,995.10
2018-04-14T03:42:11.018Z,995.07
2018-04-14T03:43:10.993Z,995.13
2018-04-14T03:44:11.000Z,995.13
2018-04-14T03:45:10.959Z,995.18
2018-04-14T03:46:10.936Z,995.16
2018-04-14T03:47:10.936Z,995.17
2018-04-14T03:48:10.902Z,995.12
2018-04-14T03:49:10.885Z,995.12
2018-04-14T03:50:12.686Z,995.12
2018-04-14T03:51:10.854Z,995.11
2018-04-14T03:52:10.827Z,995.13
2018-04-14T03:53:10.828Z,995.14
2018-04-14T03:54:10.787Z,995.17
2018-04-14T03:55:10.777Z,995.16
2018-04-14T03:56:10.757Z,995.18
2018-04-14T03:57:10.764Z,995.18
2018-04-14T03:58:10.731Z,995.18
2018-04-14T03:59:10.700Z,995.22
2018-04-14T04:00:10.723Z,995.22
2018-04-14T04:01:10.688Z,995.21
2018-04-14T04:02:10.646Z,995.23
2018-04-14T04:03:10.644Z,995.26
2018-04-14T04:04:10.624Z,995.24
2018-04-14T04:05:10.615Z,995.24
2018-04-14T04:06:10.572Z,995.29
2018-04-14T04:07:10.557Z,995.30
2018-04-14T04:08:10.538Z,995.28
2018-04-14T04:09:10.528Z,995.28
2018-04-14T04:10:10.505Z,995.31
2018-04-14T04:11:10.483Z,995.33
2018-04-14T04:12:10.457Z,995.30
2018-04-14T04:13:10.445Z,995.32
2018-04-14T04:14:10.429Z,995.35
2018-04-14T04:15:10.400Z,995.33
2018-04-14T04:16:10.404Z,995.36
2018-04-14T04:17:10.363Z,995.39
2018-04-14T04:18:10.353Z,995.42
2018-04-14T04:19:10.331Z,995.41
2018-04-14T04:20:10.315Z,995.45
2018-04-14T04:21:10.292Z,995.48
2018-04-14T04:22:10.269Z,995.48
2018-04-14T04:23:10.254Z,995.50
2018-04-14T04:24:10.242Z,995.48
2018-04-14T04:25:10.219Z,995.48
2018-04-14T04:26:10.203Z,995.40
2018-04-14T04:27:10.184Z,995.50
2018-04-14T04:28:10.218Z,995.53
2018-04-14T04:29:10.146Z,995.48
2018-04-14T04:30:10.130Z,995.49
2018-04-14T04:31:10.111Z,995.46
2018-04-14T04:32:10.092Z,995.52
2018-04-14T04:33:10.072Z,995.49
2018-04-14T04:34:10.056Z,995.49
2018-04-14T04:35:10.051Z,995.54
2018-04-14T04:36:10.025Z,995.55
2018-04-14T04:37:10.025Z,995.56
2018-04-14T04:38:09.980Z,995.60
2018-04-14T04:39:09.963Z,995.58
2018-04-14T04:40:09.941Z,995.62
2018-04-14T04:41:09.934Z,995.58
2018-04-14T04:42:09.912Z,995.65
2018-04-14T04:43:09.892Z,995.69
2018-04-14T04:44:09.874Z,995.71
2018-04-14T04:45:09.858Z,995.71
2018-04-14T04:46:09.835Z,995.75
2018-04-14T04:47:09.817Z,995.74
2018-04-14T04:48:09.800Z,995.77
2018-04-14T04:49:09.792Z,995.75
2018-04-14T04:50:09.763Z,995.76
2018-04-14T04:51:09.744Z,995.81
2018-04-14T04:52:09.733Z,995.76
2018-04-14T04:53:09.708Z,995.77
2018-04-14T04:54:09.689Z,995.82
2018-04-14T04:55:09.686Z,995.79
2018-04-14T04:56:09.657Z,995.82
2018-04-14T04:57:09.638Z,995.85
2018-04-14T04:58:09.613Z,995.89
2018-04-14T04:59:09.596Z,995.94
2018-04-14T05:00:09.577Z,995.93
2018-04-14T05:01:09.560Z,995.99
2018-04-14T05:02:09.546Z,995.98
2018-04-14T05:03:09.523Z,996.00
2018-04-14T05:04:09.509Z,996.03
2018-04-14T05:05:09.487Z,996.02
2018-04-14T05:06:09.470Z,996.01
2018-04-14T05:07:09.449Z,996.10
2018-04-14T05:08:09.436Z,996.10
2018-04-14T05:09:09.436Z,996.08
2018-04-14T05:10:09.398Z,996.17
2018-04-14T05:11:09.398Z,996.14
2018-04-14T05:12:18.147Z,996.12
2018-04-14T05:14:02.790Z,996.20
2018-04-14T05:15:02.758Z,996.21
2018-04-14T05:16:02.693Z,996.23
2018-04-14T05:17:02.787Z,996.28
2018-04-14T05:18:02.652Z,996.26
2018-04-14T05:19:02.622Z,996.27
2018-04-14T05:20:02.612Z,996.26
2018-04-14T05:21:02.640Z,996.31
2018-04-14T05:22:02.570Z,996.30
2018-04-14T05:23:02.561Z,996.35
2018-04-14T05:24:02.554Z,996.36
2018-04-14T05:25:02.525Z,996.41
2018-04-14T05:26:02.506Z,996.35
2018-04-14T05:27:02.490Z,996.45
2018-04-14T05:28:02.509Z,996.39
2018-04-14T05:29:02.465Z,996.36
2018-04-14T05:30:02.432Z,996.42
2018-04-14T05:31:02.429Z,996.42
2018-04-14T05:32:02.394Z,996.45
2018-04-14T05:33:02.391Z,996.44
2018-04-14T05:34:02.361Z,996.42
2018-04-14T05:35:02.354Z,996.40
2018-04-14T05:36:02.351Z,996.44
2018-04-14T05:37:02.316Z,996.46
2018-04-14T05:38:02.294Z,996.47
2018-04-14T05:39:02.291Z,996.51
2018-04-14T05:40:02.264Z,996.50
2018-04-14T05:41:02.236Z,996.50
2018-04-14T05:42:02.220Z,996.52
2018-04-14T05:43:02.207Z,996.48
2018-04-14T05:44:02.194Z,996.48
2018-04-14T05:45:02.169Z,996.44
2018-04-14T05:46:02.153Z,996.52
2018-04-14T05:47:02.136Z,996.48
2018-04-14T05:48:02.129Z,996.48
2018-04-14T05:49:02.114Z,996.50
2018-04-14T05:50:02.089Z,996.52
2018-04-14T05:51:02.068Z,996.52
2018-04-14T05:52:02.058Z,996.46
2018-04-14T05:53:02.041Z,996.52
2018-04-14T05:54:02.023Z,996.56
2018-04-14T05:55:01.992Z,996.53
2018-04-14T05:56:01.985Z,996.55
2018-04-14T05:57:01.966Z,996.56
2018-04-14T05:58:01.948Z,996.60
2018-04-14T05:59:01.924Z,996.64
2018-04-14T06:00:01.935Z,996.62
2018-04-14T06:01:01.896Z,996.62
2018-04-14T06:02:01.883Z,996.65
2018-04-14T06:03:01.874Z,996.62
2018-04-14T06:04:01.841Z,996.64
2018-04-14T06:05:01.828Z,996.60
2018-04-14T06:06:01.817Z,996.60
2018-04-14T06:07:01.803Z,996.65
2018-04-14T06:08:01.781Z,996.67
2018-04-14T06:09:01.805Z,996.64
2018-04-14T06:10:01.742Z,996.69
2018-04-14T06:11:01.755Z,996.72
2018-04-14T06:12:01.710Z,996.72
2018-04-14T06:13:01.709Z,996.70
2018-04-14T06:14:01.748Z,996.76
2018-04-14T06:15:01.662Z,996.73
2018-04-14T06:16:01.646Z,996.68
2018-04-14T06:17:01.639Z,996.70
2018-04-14T06:18:01.611Z,996.70
2018-04-14T06:19:01.608Z,996.68
2018-04-14T06:20:01.594Z,996.66
2018-04-14T06:21:01.565Z,996.71
2018-04-14T06:22:01.592Z,996.72
2018-04-14T06:23:01.539Z,996.71
2018-04-14T06:24:01.514Z,996.76
2018-04-14T06:25:01.497Z,996.73
2018-04-14T06:26:01.482Z,996.72
2018-04-14T06:27:01.481Z,996.73
2018-04-14T06:28:01.446Z,996.76
2018-04-14T06:29:01.446Z,996.82
2018-04-14T06:30:01.421Z,996.80
2018-04-14T06:31:01.407Z,996.79
2018-04-14T06:32:01.391Z,996.81
2018-04-14T06:33:01.367Z,996.82
2018-04-14T06:34:01.344Z,996.80
2018-04-14T06:35:01.373Z,996.80
2018-04-14T06:36:01.325Z,996.88
2018-04-14T06:37:01.296Z,996.86
2018-04-14T06:38:01.287Z,996.83
2018-04-14T06:39:01.268Z,996.88
2018-04-14T06:40:01.254Z,996.87
2018-04-14T06:41:01.254Z,996.90
2018-04-14T06:42:01.228Z,996.91
2018-04-14T06:43:01.213Z,996.92
2018-04-14T06:44:01.196Z,996.90
2018-04-14T06:45:01.174Z,996.92
2018-04-14T06:46:01.155Z,996.94
2018-04-14T06:47:01.140Z,996.94
2018-04-14T06:48:01.127Z,996.94
2018-04-14T06:49:01.109Z,996.96
2018-04-14T06:50:01.091Z,996.98
2018-04-14T06:51:01.090Z,997.02
2018-04-14T06:52:01.063Z,997.02
2018-04-14T06:53:01.047Z,997.04
2018-04-14T06:54:01.038Z,997.02
2018-04-14T06:55:01.029Z,997.09
2018-04-14T06:56:01.004Z,997.06
2018-04-14T06:57:00.987Z,997.10
2018-04-14T06:58:00.970Z,997.10
2018-04-14T06:59:00.967Z,997.13
2018-04-14T07:00:00.954Z,997.16
2018-04-14T07:01:00.929Z,997.17
2018-04-14T07:02:00.923Z,997.18
2018-04-14T07:03:00.900Z,997.21
2018-04-14T07:04:00.887Z,997.22
2018-04-14T07:05:00.864Z,997.19
2018-04-14T07:06:00.855Z,997.22
2018-04-14T07:07:00.830Z,997.21
2018-04-14T07:08:00.814Z,997.26
2018-04-14T07:09:00.797Z,997.26
2018-04-14T07:10:00.784Z,997.32
2018-04-14T07:11:00.772Z,997.38
2018-04-14T07:12:00.751Z,997.33
2018-04-14T07:13:00.741Z,997.34
2018-04-14T07:14:00.729Z,997.37
2018-04-14T07:15:00.716Z,997.37
2018-04-14T07:16:00.697Z,997.32
2018-04-14T07:17:00.688Z,997.35
2018-04-14T07:18:00.677Z,997.35
2018-04-14T07:19:00.649Z,997.38
2018-04-14T07:20:00.636Z,997.40
2018-04-14T07:21:00.619Z,997.43
2018-04-14T07:22:00.630Z,997.52
2018-04-14T07:23:00.610Z,997.49
2018-04-14T07:24:00.572Z,997.45
2018-04-14T07:25:00.570Z,997.47
2018-04-14T07:26:00.544Z,997.49
2018-04-14T07:27:00.528Z,997.42
2018-04-14T07:28:00.531Z,997.45
2018-04-14T07:29:00.518Z,997.47
2018-04-14T07:30:00.526Z,997.42
2018-04-14T07:31:00.554Z,997.42
2018-04-14T07:32:00.460Z,997.47
2018-04-14T07:33:00.442Z,997.45
2018-04-14T07:34:00.423Z,997.41
2018-04-14T07:35:00.419Z,997.47
2018-04-14T07:36:00.412Z,997.48
2018-04-14T07:37:00.377Z,997.46
2018-04-14T07:38:00.378Z,997.49
2018-04-14T07:39:00.378Z,997.51
2018-04-14T07:40:00.350Z,997.45
2018-04-14T07:41:00.325Z,997.50
2018-04-14T07:42:00.322Z,997.57
2018-04-14T07:43:00.294Z,997.56
2018-04-14T07:44:00.287Z,997.60
2018-04-14T07:45:00.330Z,997.59
2018-04-14T07:46:00.244Z,997.56
2018-04-14T07:47:00.245Z,997.59
2018-04-14T07:48:00.225Z,997.60
2018-04-14T07:49:00.204Z,997.63
2018-04-14T07:50:00.209Z,997.65
2018-04-14T07:51:00.193Z,997.64
2018-04-14T07:52:00.225Z,997.62
2018-04-14T07:53:00.161Z,997.61
2018-04-14T07:54:00.140Z,997.60
2018-04-14T07:55:00.124Z,997.62
2018-04-14T07:56:00.112Z,997.62
2018-04-14T07:57:00.095Z,997.69
2018-04-14T07:58:00.070Z,997.69
2018-04-14T07:59:00.070Z,997.72
2018-04-14T08:00:00.072Z,997.70
2018-04-14T08:01:00.039Z,997.75
2018-04-14T08:02:00.019Z,997.77
2018-04-14T08:03:00.017Z,997.76
2018-04-14T08:03:59.997Z,997.71
2018-04-14T08:04:59.987Z,997.74
2018-04-14T08:05:59.962Z,997.75
2018-04-14T08:06:59.942Z,997.78
2018-04-14T08:07:59.933Z,997.79
2018-04-14T08:08:59.919Z,997.84
2018-04-14T08:09:59.916Z,997.81
2018-04-14T08:10:59.897Z,997.81
2018-04-14T08:11:59.900Z,997.83
2018-04-14T08:12:59.862Z,997.85
2018-04-14T08:13:59.849Z,997.82
2018-04-14T08:14:59.833Z,997.80
2018-04-14T08:15:59.827Z,997.83
2018-04-14T08:16:59.833Z,997.86
2018-04-14T08:17:59.789Z,997.88
2018-04-14T08:18:59.789Z,997.87
2018-04-14T08:19:59.865Z,997.86
2018-04-14T08:20:59.746Z,997.85
2018-04-14T08:21:59.779Z,997.91
2018-04-14T08:22:59.746Z,997.91
2018-04-14T08:23:59.714Z,997.96
2018-04-14T08:24:59.769Z,997.93
2018-04-14T08:25:59.689Z,997.91
2018-04-14T08:26:59.692Z,997.90
2018-04-14T08:27:59.656Z,997.95
2018-04-14T08:28:59.673Z,997.91
2018-04-14T08:29:59.637Z,997.95
2018-04-14T08:30:59.615Z,997.92
2018-04-14T08:31:59.596Z,997.98
2018-04-14T08:32:59.586Z,997.95
2018-04-14T08:33:59.574Z,997.98
2018-04-14T08:34:59.570Z,997.97
2018-04-14T08:35:59.554Z,998.02
2018-04-14T08:36:59.534Z,997.98
2018-04-14T08:37:59.528Z,997.99
2018-04-14T08:38:59.521Z,998.01
2018-04-14T08:39:59.495Z,998.01
2018-04-14T08:40:59.476Z,998.04
2018-04-14T08:41:59.462Z,998.07
2018-04-14T08:42:59.460Z,998.03
2018-04-14T08:43:59.444Z,998.04
2018-04-14T08:44:59.432Z,998.11
2018-04-14T08:45:59.418Z,998.12
2018-04-14T08:46:59.413Z,998.12
2018-04-14T08:47:59.402Z,998.15
2018-04-14T08:48:59.379Z,998.17
2018-04-14T08:49:59.374Z,998.19
2018-04-14T08:50:59.363Z,998.20
2018-04-14T08:51:59.350Z,998.21
2018-04-14T08:52:59.347Z,998.24
2018-04-14T08:53:59.346Z,998.21
2018-04-14T08:54:59.328Z,998.25
2018-04-14T08:55:59.319Z,998.24
2018-04-14T08:56:59.305Z,998.25
2018-04-14T08:57:59.302Z,998.27
2018-04-14T08:58:59.298Z,998.28
2018-04-14T08:59:59.297Z,998.31
2018-04-14T09:00:59.283Z,998.30
2018-04-14T09:01:59.280Z,998.23
2018-04-14T09:02:59.281Z,998.29
2018-04-14T09:03:59.269Z,998.29
2018-04-14T09:04:59.260Z,998.30
2018-04-14T09:05:59.268Z,998.25
2018-04-14T09:06:59.273Z,998.29
2018-04-14T09:07:59.267Z,998.30
2018-04-14T09:08:59.248Z,998.27
2018-04-14T09:09:59.264Z,998.31
2018-04-14T09:10:59.260Z,998.33
2018-04-14T09:11:59.244Z,998.34
2018-04-14T09:12:59.254Z,998.35
2018-04-14T09:13:59.254Z,998.38
2018-04-14T09:14:59.235Z,998.35
2018-04-14T09:15:59.232Z,998.39
2018-04-14T09:16:59.229Z,998.38
2018-04-14T09:17:59.232Z,998.42
2018-04-14T09:18:59.232Z,998.38
2018-04-14T09:19:59.242Z,998.40
2018-04-14T09:20:59.222Z,998.41
2018-04-14T09:21:59.226Z,998.40
2018-04-14T09:22:59.226Z,998.41
2018-04-14T09:23:59.220Z,998.41
2018-04-14T09:24:59.225Z,998.43
2018-04-14T09:25:59.226Z,998.42
2018-04-14T09:26:59.226Z,998.40
2018-04-14T09:27:59.213Z,998.41
2018-04-14T09:28:59.220Z,998.42
2018-04-14T09:29:59.220Z,998.42
2018-04-14T09:30:59.222Z,998.42
2018-04-14T09:31:59.216Z,998.43
2018-04-14T09:32:59.215Z,998.42
2018-04-14T09:33:59.210Z,998.41
2018-04-14T09:34:59.223Z,998.39
2018-04-14T09:35:59.220Z,998.41
2018-04-14T09:36:59.252Z,998.44
2018-04-14T09:37:59.220Z,998.45
2018-04-14T09:38:59.213Z,998.44
2018-04-14T09:39:59.217Z,998.45
2018-04-14T09:40:59.211Z,998.39
2018-04-14T09:41:59.224Z,998.41
2018-04-14T09:42:59.253Z,998.43
2018-04-14T09:43:59.218Z,998.43
2018-04-14T09:44:59.212Z,998.40
2018-04-14T09:45:59.212Z,998.41
2018-04-14T09:46:59.222Z,998.37
2018-04-14T09:47:59.218Z,998.40
2018-04-14T09:48:59.222Z,998.40
2018-04-14T09:49:59.219Z,998.38
2018-04-14T09:50:59.222Z,998.38
2018-04-14T09:51:59.223Z,998.38
2018-04-14T09:52:59.244Z,998.37
2018-04-14T09:53:59.225Z,998.36
2018-04-14T09:54:59.231Z,998.34
2018-04-14T09:55:59.231Z,998.33
2018-04-14T09:56:59.231Z,998.32
2018-04-14T09:57:59.231Z,998.29
2018-04-14T09:58:59.234Z,998.32
2018-04-14T09:59:59.228Z,998.29
2018-04-14T10:00:59.243Z,998.26
2018-04-14T10:01:59.237Z,998.29
2018-04-14T10:02:59.240Z,998.26
2018-04-14T10:03:59.232Z,998.26
2018-04-14T10:04:59.235Z,998.26
2018-04-14T10:05:59.237Z,998.28
2018-04-14T10:06:59.234Z,998.26
2018-04-14T10:07:59.247Z,998.28
2018-04-14T10:08:59.259Z,998.28
2018-04-14T10:09:59.236Z,998.23
2018-04-14T10:10:59.234Z,998.27
2018-04-14T10:11:59.238Z,998.27
2018-04-14T10:12:59.240Z,998.28
2018-04-14T10:13:59.234Z,998.33
2018-04-14T10:14:59.245Z,998.32
2018-04-14T10:15:59.234Z,998.32
2018-04-14T10:16:59.240Z,998.29
2018-04-14T10:17:59.253Z,998.29
2018-04-14T10:18:59.243Z,998.30
2018-04-14T10:19:59.240Z,998.29
2018-04-14T10:20:59.233Z,998.26
2018-04-14T10:21:59.234Z,998.26
2018-04-14T10:22:59.234Z,998.26
2018-04-14T10:23:59.236Z,998.22
2018-04-14T10:24:59.230Z,998.21
2018-04-14T10:25:59.227Z,998.16
2018-04-14T10:26:59.278Z,998.20
2018-04-14T10:27:59.220Z,998.17
2018-04-14T10:28:59.220Z,998.17
2018-04-14T10:29:59.215Z,998.16
2018-04-14T10:30:59.220Z,998.13
2018-04-14T10:31:59.209Z,998.14
2018-04-14T10:32:59.204Z,998.11
2018-04-14T10:33:59.215Z,998.12
2018-04-14T10:34:59.204Z,998.14
2018-04-14T10:35:59.194Z,998.14
2018-04-14T10:36:59.192Z,998.13
2018-04-14T10:37:59.288Z,998.17
2018-04-14T10:38:59.185Z,998.17
2018-04-14T10:39:59.185Z,998.17
2018-04-14T10:40:59.178Z,998.12
2018-04-14T10:41:59.198Z,998.12
2018-04-14T10:42:59.172Z,998.09
2018-04-14T10:43:59.177Z,998.12
2018-04-14T10:44:59.172Z,998.10
2018-04-14T10:45:59.183Z,998.11
2018-04-14T10:46:59.166Z,998.11
2018-04-14T10:47:59.168Z,998.11
2018-04-14T10:48:59.179Z,998.09
2018-04-14T10:49:59.165Z,998.09
2018-04-14T10:50:59.195Z,998.09
2018-04-14T10:51:59.166Z,998.06
2018-04-14T10:52:59.166Z,998.13
2018-04-14T10:53:59.190Z,998.12
2018-04-14T10:54:59.169Z,998.18
2018-04-14T10:55:59.162Z,998.13
2018-04-14T10:56:59.170Z,998.10
2018-04-14T10:57:59.166Z,998.11
2018-04-14T10:58:59.169Z,998.12
2018-04-14T10:59:59.186Z,998.12
2018-04-14T11:00:59.169Z,998.10
2018-04-14T11:01:59.175Z,998.09
2018-04-14T11:02:59.177Z,998.06
2018-04-14T11:03:59.174Z,998.09
2018-04-14T11:04:59.181Z,998.06
2018-04-14T11:05:59.200Z,998.05
2018-04-14T11:06:59.180Z,998.03
2018-04-14T11:07:59.181Z,998.01
2018-04-14T11:08:59.193Z,998.04
2018-04-14T11:09:59.180Z,998.07
2018-04-14T11:10:59.197Z,998.04
2018-04-14T11:11:59.187Z,998.05
2018-04-14T11:12:59.187Z,998.00
2018-04-14T11:13:59.230Z,997.97
2018-04-14T11:14:59.194Z,997.96
2018-04-14T11:15:59.195Z,997.97
2018-04-14T11:16:59.197Z,997.89
2018-04-14T11:17:59.200Z,997.93
2018-04-14T11:18:59.193Z,997.96
2018-04-14T11:19:59.193Z,997.96
2018-04-14T11:20:59.187Z,997.92
2018-04-14T11:21:59.191Z,997.92
2018-04-14T11:22:59.203Z,997.92
2018-04-14T11:23:59.188Z,997.94
2018-04-14T11:24:59.187Z,997.92
2018-04-14T11:25:59.190Z,997.92
2018-04-14T11:26:59.180Z,997.90
2018-04-14T11:27:59.180Z,997.91
2018-04-14T11:28:59.187Z,997.89
2018-04-14T11:29:59.187Z,997.89
2018-04-14T11:30:59.174Z,997.88
2018-04-14T11:31:59.174Z,997.82
2018-04-14T11:32:59.348Z,997.83
2018-04-14T11:33:59.175Z,997.85
2018-04-14T11:34:59.166Z,997.84
2018-04-14T11:35:59.168Z,997.84
2018-04-14T11:36:59.160Z,997.88
2018-04-14T11:37:59.159Z,997.87
2018-04-14T11:38:59.164Z,997.87
2018-04-14T11:39:59.147Z,997.87
2018-04-14T11:40:59.158Z,997.86
2018-04-14T11:41:59.138Z,997.89
2018-04-14T11:42:59.134Z,997.92
2018-04-14T11:43:59.135Z,997.89
2018-04-14T11:44:59.134Z,997.86
2018-04-14T11:45:59.131Z,997.92
2018-04-14T11:46:59.128Z,997.90
2018-04-14T11:47:59.135Z,997.91
2018-04-14T11:48:59.125Z,997.96
2018-04-14T11:49:59.131Z,997.95
2018-04-14T11:50:59.166Z,998.03
2018-04-14T11:51:59.168Z,998.04
2018-04-14T11:52:59.118Z,998.02
2018-04-14T11:53:59.109Z,998.01
2018-04-14T11:54:59.118Z,998.00
2018-04-14T11:55:59.105Z,998.04
2018-04-14T11:56:59.102Z,998.04
2018-04-14T11:57:59.108Z,998.02
2018-04-14T11:58:59.125Z,998.06
2018-04-14T11:59:59.099Z,998.01
2018-04-14T12:00:59.108Z,998.05
2018-04-14T12:01:59.102Z,998.09
2018-04-14T12:02:59.108Z,998.08
2018-04-14T12:03:59.112Z,998.03
2018-04-14T12:04:59.121Z,998.07
2018-04-14T12:05:59.112Z,998.07
2018-04-14T12:06:59.112Z,998.07
2018-04-14T12:07:59.105Z,998.09
2018-04-14T12:08:59.109Z,998.07
2018-04-14T12:09:59.118Z,998.05
2018-04-14T12:10:59.112Z,998.06
2018-04-14T12:11:59.132Z,998.05
2018-04-14T12:12:59.118Z,998.07
2018-04-14T12:13:59.131Z,998.09
2018-04-14T12:14:59.128Z,998.06
2018-04-14T12:15:59.128Z,998.04
2018-04-14T12:16:59.141Z,998.05
2018-04-14T12:17:59.138Z,998.02
2018-04-14T12:18:59.137Z,998.01
2018-04-14T12:19:59.138Z,998.04
2018-04-14T12:20:59.137Z,998.01
2018-04-14T12:21:59.141Z,998.02
2018-04-14T12:22:59.157Z,998.02
2018-04-14T12:23:59.147Z,998.03
2018-04-14T12:24:59.156Z,998.04
2018-04-14T12:25:59.159Z,998.01
2018-04-14T12:26:59.162Z,998.01
2018-04-14T12:27:59.159Z,998.02
2018-04-14T12:28:59.174Z,998.02